Time;durP1;ratioP1;P1;durP2;ratioP2;P2;SDS_P1;SDS_P2;PMS_P1;PMS_P2;Temp;Humidity;BMP_temperature;BMP_pressure;BME280_temperature;BME280_humidity;BME280_pressure;Samples;Min_cycle;Max_cycle;Signal;HPM_P1;HPM_P2
2023/01/25 00:02:06;;;;;;;42.67;24.00;;;1.60;99.90;;;;;;5112207;27;20208;-84
2023/01/25 00:04:32;;;;;;;39.70;23.63;;;1.60;99.90;;;;;;5113921;27;20212;-82
2023/01/25 00:06:58;;;;;;;45.40;24.50;;;1.70;99.90;;;;;;5107770;27;20184;-81
2023/01/25 00:09:24;;;;;;;43.42;25.63;;;1.70;99.90;;;;;;5112912;27;20177;-81
2023/01/25 00:11:50;;;;;;;39.35;22.83;;;1.70;99.90;;;;;;5110822;27;20947;-82
2023/01/25 00:14:16;;;;;;;41.67;24.23;;;1.70;99.90;;;;;;5113143;27;20185;-81
2023/01/25 00:16:42;;;;;;;40.75;23.52;;;1.70;99.90;;;;;;5113056;27;20700;-83
2023/01/25 00:19:09;;;;;;;40.95;23.27;;;1.70;99.90;;;;;;5097440;27;20501;-83
2023/01/25 00:21:35;;;;;;;44.50;26.27;;;1.70;99.90;;;;;;5111334;27;20233;-81
2023/01/25 00:24:02;;;;;;;42.00;22.92;;;1.80;99.90;;;;;;5110074;27;20189;-81
2023/01/25 00:26:34;;;;;;;42.83;25.70;;;1.80;99.90;;;;;;5102121;27;20189;-81
2023/01/25 00:29:01;;;;;;;39.33;23.02;;;1.70;99.90;;;;;;5114835;27;20249;-84
2023/01/25 00:31:33;;;;;;;42.75;23.50;;;1.80;99.90;;;;;;5111705;27;20189;-82
2023/01/25 00:34:24;;;;;;;42.20;23.63;;;1.80;99.90;;;;;;5111573;27;21151;-83
2023/01/25 00:36:56;;;;;;;37.67;22.05;;;1.80;99.90;;;;;;5110135;27;20212;-81
2023/01/25 00:39:23;;;;;;;37.72;22.55;;;1.80;99.90;;;;;;5115657;27;20448;-81
2023/01/25 00:41:49;;;;;;;36.92;21.63;;;1.80;99.90;;;;;;5111659;27;20254;-86
2023/01/25 00:44:15;;;;;;;38.78;23.35;;;1.80;99.90;;;;;;5110823;27;21880;-81
2023/01/25 00:46:41;;;;;;;41.95;23.67;;;1.80;99.90;;;;;;5097693;27;20201;-81
2023/01/25 00:49:20;;;;;;;38.55;22.60;;;1.80;99.90;;;;;;5110768;27;20251;-84
2023/01/25 00:51:46;;;;;;;40.50;23.73;;;1.70;99.90;;;;;;5097845;27;20184;-82
2023/01/25 00:54:12;;;;;;;37.72;21.92;;;1.70;99.90;;;;;;5112441;27;20184;-83
2023/01/25 00:56:38;;;;;;;40.78;22.77;;;1.70;99.90;;;;;;5083369;27;20228;-82
2023/01/25 00:59:05;;;;;;;38.95;23.60;;;1.70;99.90;;;;;;5115507;27;20214;-81
2023/01/25 01:01:31;;;;;;;43.28;23.33;;;1.70;99.90;;;;;;5099468;27;20247;-83
2023/01/25 01:03:57;;;;;;;39.50;22.85;;;1.70;99.90;;;;;;5112873;27;20217;-82
2023/01/25 01:06:23;;;;;;;43.75;23.38;;;1.70;99.90;;;;;;5095366;27;20198;-84
2023/01/25 01:08:51;;;;;;;44.03;23.45;;;1.70;99.90;;;;;;5117044;27;20327;-83
2023/01/25 01:11:17;;;;;;;46.08;23.88;;;1.70;99.90;;;;;;5115717;27;20279;-82
2023/01/25 01:13:43;;;;;;;47.75;26.75;;;1.70;99.90;;;;;;5115469;27;20184;-82
2023/01/25 01:16:11;;;;;;;44.75;24.83;;;1.60;99.90;;;;;;5117692;27;20208;-83
2023/01/25 01:18:37;;;;;;;47.70;25.55;;;1.60;99.90;;;;;;5120163;27;20177;-82
2023/01/25 01:21:04;;;;;;;45.65;24.48;;;1.50;99.90;;;;;;5115800;27;20204;-82
2023/01/25 01:23:30;;;;;;;46.10;24.88;;;1.50;99.90;;;;;;5117721;27;20193;-81
2023/01/25 01:26:02;;;;;;;50.55;26.60;;;1.50;99.90;;;;;;5120027;27;20410;-83
2023/01/25 01:28:29;;;;;;;50.75;25.90;;;1.50;99.90;;;;;;5125177;27;20204;-81
2023/01/25 01:31:00;;;;;;;45.90;25.38;;;1.40;99.90;;;;;;5123354;27;20185;-80
2023/01/25 01:33:28;;;;;;;46.28;25.10;;;1.40;99.90;;;;;;5120029;27;20195;-82
2023/01/25 01:35:54;;;;;;;46.50;25.92;;;1.40;99.90;;;;;;5101305;27;20217;-82
2023/01/25 01:38:20;;;;;;;49.38;26.55;;;1.40;99.90;;;;;;5117073;27;20211;-81
2023/01/25 01:40:46;;;;;;;51.53;26.75;;;1.40;99.90;;;;;;5115210;27;20273;-83
2023/01/25 01:43:18;;;;;;;50.85;27.52;;;1.40;99.90;;;;;;5109321;27;20796;-83
2023/01/25 01:45:48;;;;;;;44.42;26.90;;;1.40;99.90;;;;;;5112873;27;20565;-82
2023/01/25 01:48:37;;;;;;;45.58;25.27;;;1.40;99.90;;;;;;5110402;27;20180;-81
2023/01/25 01:51:34;;;;;;;44.13;24.85;;;1.40;99.90;;;;;;5095312;27;20176;-82
2023/01/25 01:54:24;;;;;;;44.70;24.15;;;1.40;99.90;;;;;;5110192;27;20272;-83
2023/01/25 01:57:04;;;;;;;44.92;24.23;;;1.40;99.90;;;;;;5107242;27;20208;-81
2023/01/25 01:59:33;;;;;;;43.80;25.13;;;1.40;99.90;;;;;;5112488;27;20184;-82
2023/01/25 02:01:59;;;;;;;44.15;23.90;;;1.30;99.90;;;;;;5108870;27;20211;-84
2023/01/25 02:04:27;;;;;;;46.22;25.15;;;1.30;99.90;;;;;;5114542;27;20252;-82
2023/01/25 02:07:10;;;;;;;46.35;24.33;;;1.30;99.90;;;;;;5093096;27;20185;-81
2023/01/25 02:09:36;;;;;;;43.83;24.40;;;1.30;99.90;;;;;;5109865;27;20176;-84
2023/01/25 02:12:05;;;;;;;46.22;26.10;;;1.40;99.90;;;;;;5100542;27;20244;-82
2023/01/25 02:14:32;;;;;;;51.22;26.48;;;1.40;99.90;;;;;;5110525;27;20181;-81
2023/01/25 02:16:59;;;;;;;48.35;26.15;;;1.40;99.90;;;;;;5108078;27;20220;-81
2023/01/25 02:19:40;;;;;;;49.30;26.92;;;1.40;99.90;;;;;;5102441;27;20181;-84
2023/01/25 02:22:12;;;;;;;46.95;25.35;;;1.40;99.90;;;;;;5092238;27;20582;-82
2023/01/25 02:24:41;;;;;;;49.47;26.58;;;1.40;99.90;;;;;;5110837;27;20624;-83
2023/01/25 02:27:07;;;;;;;48.55;27.55;;;1.40;99.90;;;;;;5109515;27;20213;-82
2023/01/25 02:29:33;;;;;;;50.05;28.58;;;1.40;99.90;;;;;;5092705;27;20213;-82
2023/01/25 02:32:02;;;;;;;53.67;28.40;;;1.40;99.90;;;;;;5074582;27;20238;-82
2023/01/25 02:34:28;;;;;;;51.75;25.90;;;1.40;99.90;;;;;;5092168;27;20452;-81
2023/01/25 02:36:54;;;;;;;50.65;26.27;;;1.40;99.90;;;;;;5073767;27;20686;-82
2023/01/25 02:39:22;;;;;;;51.85;25.48;;;1.30;99.90;;;;;;5113040;27;20279;-82
2023/01/25 02:41:49;;;;;;;55.83;28.48;;;1.40;99.90;;;;;;5080435;27;20189;-83
2023/01/25 02:44:19;;;;;;;48.10;25.05;;;1.40;99.90;;;;;;5094447;27;20662;-82
2023/01/25 02:46:46;;;;;;;54.28;27.40;;;1.30;99.90;;;;;;5093457;27;20418;-84
2023/01/25 02:49:13;;;;;;;56.03;29.67;;;1.40;99.90;;;;;;5106427;27;20180;-81
2023/01/25 02:51:46;;;;;;;55.72;28.52;;;1.40;99.90;;;;;;5104603;27;20181;-81
2023/01/25 02:54:14;;;;;;;55.20;29.15;;;1.40;99.90;;;;;;5090774;27;20184;-82
2023/01/25 02:56:40;;;;;;;55.95;28.17;;;1.30;99.90;;;;;;5107380;27;20223;-84
2023/01/25 02:59:06;;;;;;;56.15;29.08;;;1.30;99.90;;;;;;5096312;27;20197;-83
2023/01/25 03:01:35;;;;;;;55.53;27.65;;;1.30;99.90;;;;;;5105948;27;20188;-82
2023/01/25 03:04:03;;;;;;;55.45;29.15;;;1.30;99.90;;;;;;5109193;27;20225;-84
2023/01/25 03:06:29;;;;;;;58.10;27.65;;;1.30;99.90;;;;;;5107403;27;20183;-84
2023/01/25 03:08:55;;;;;;;63.95;32.83;;;1.20;99.90;;;;;;5095431;28;20280;-84
2023/01/25 03:11:21;;;;;;;61.15;31.42;;;1.30;99.90;;;;;;5107231;27;20321;-85
2023/01/25 03:13:47;;;;;;;63.35;32.30;;;1.30;99.90;;;;;;5089051;28;20185;-84
2023/01/25 03:16:13;;;;;;;63.45;33.90;;;1.30;99.90;;;;;;5110617;28;20223;-83
2023/01/25 03:18:42;;;;;;;62.40;31.90;;;1.20;99.90;;;;;;5092699;28;20681;-83
2023/01/25 03:21:19;;;;;;;61.58;32.13;;;1.20;99.90;;;;;;5089521;28;21664;-82
2023/01/25 03:23:46;;;;;;;64.18;33.63;;;1.20;99.90;;;;;;5106124;28;20370;-84
2023/01/25 03:26:19;;;;;;;72.18;36.17;;;1.20;99.90;;;;;;5108064;27;20264;-84
2023/01/25 03:28:59;;;;;;;72.60;36.72;;;1.20;99.90;;;;;;5100903;28;20180;-85
2023/01/25 03:31:25;;;;;;;71.63;34.95;;;1.20;99.90;;;;;;5078289;28;20208;-83
2023/01/25 03:33:51;;;;;;;77.10;36.63;;;1.20;99.90;;;;;;5110930;27;20303;-83
2023/01/25 03:36:18;;;;;;;71.55;35.83;;;1.20;99.90;;;;;;5105222;28;20298;-84
2023/01/25 03:38:44;;;;;;;74.03;37.63;;;1.20;99.90;;;;;;5092729;28;22604;-84
2023/01/25 03:41:12;;;;;;;77.85;36.75;;;1.20;99.90;;;;;;5107788;28;20264;-84
2023/01/25 03:43:38;;;;;;;78.38;37.65;;;1.30;99.90;;;;;;5093666;28;21244;-85
2023/01/25 03:46:04;;;;;;;78.05;36.75;;;1.20;99.90;;;;;;5091988;28;20189;-83
2023/01/25 03:48:32;;;;;;;74.20;33.25;;;1.20;99.90;;;;;;5109678;28;20267;-84
2023/01/25 03:50:59;;;;;;;75.65;34.88;;;1.30;99.90;;;;;;5094793;28;20216;-83
2023/01/25 03:53:28;;;;;;;79.53;38.75;;;1.20;99.90;;;;;;5110343;28;20192;-84
2023/01/25 03:56:02;;;;;;;80.65;38.63;;;1.20;99.90;;;;;;5091149;28;20236;-85
2023/01/25 03:58:30;;;;;;;82.53;38.70;;;1.20;99.90;;;;;;5105326;28;20639;-84
2023/01/25 04:00:58;;;;;;;83.05;37.03;;;1.10;99.90;;;;;;5103970;28;20180;-84
2023/01/25 04:03:25;;;;;;;85.47;40.45;;;1.10;99.90;;;;;;5094779;28;20181;-82
2023/01/25 04:05:53;;;;;;;81.47;37.55;;;1.10;99.90;;;;;;5102054;28;20641;-83
2023/01/25 04:08:19;;;;;;;85.38;37.90;;;1.20;99.90;;;;;;5106485;27;20323;-83
2023/01/25 04:10:59;;;;;;;85.90;38.95;;;1.20;99.90;;;;;;5105947;28;20564;-84
2023/01/25 04:13:26;;;;;;;84.00;37.40;;;1.10;99.90;;;;;;5077726;28;20199;-85
2023/01/25 04:15:53;;;;;;;84.97;38.95;;;1.10;99.90;;;;;;5107947;27;20755;-83
2023/01/25 04:18:41;;;;;;;82.15;38.47;;;1.10;99.90;;;;;;5113059;27;20193;-83
2023/01/25 04:21:07;;;;;;;83.53;39.92;;;1.10;99.90;;;;;;5111500;27;20193;-84
2023/01/25 04:23:33;;;;;;;84.00;40.67;;;1.10;99.90;;;;;;5109948;27;20700;-83
2023/01/25 04:26:03;;;;;;;81.60;38.35;;;1.10;99.90;;;;;;5086267;27;20208;-83
2023/01/25 04:28:31;;;;;;;81.30;38.88;;;1.00;99.90;;;;;;5101824;27;20258;-82
2023/01/25 04:30:57;;;;;;;78.70;37.17;;;1.10;99.90;;;;;;5079312;27;20311;-83
2023/01/25 04:33:28;;;;;;;80.47;38.35;;;0.90;99.90;;;;;;5111946;27;20586;-83
2023/01/25 04:35:54;;;;;;;80.30;36.15;;;1.00;99.90;;;;;;5110372;27;20787;-83
2023/01/25 04:38:22;;;;;;;77.68;35.92;;;1.00;99.90;;;;;;5111184;27;20177;-82
2023/01/25 04:40:50;;;;;;;85.50;41.17;;;1.00;99.90;;;;;;5110357;27;20189;-83
2023/01/25 04:43:17;;;;;;;88.85;40.22;;;1.00;99.90;;;;;;5092857;27;20208;-83
2023/01/25 04:45:44;;;;;;;80.78;38.45;;;1.00;99.90;;;;;;5094651;27;20193;-84
2023/01/25 04:48:18;;;;;;;84.68;38.42;;;1.00;99.90;;;;;;5113817;27;20280;-82
2023/01/25 04:50:49;;;;;;;84.22;37.70;;;1.00;99.90;;;;;;5099061;27;20200;-85
2023/01/25 04:53:18;;;;;;;85.47;40.28;;;1.00;99.90;;;;;;5092882;27;20186;-82
2023/01/25 04:55:46;;;;;;;88.93;40.80;;;1.00;99.90;;;;;;5109718;27;20301;-84
2023/01/25 04:58:12;;;;;;;86.65;39.90;;;1.00;99.90;;;;;;5110476;27;20185;-83
2023/01/25 05:00:39;;;;;;;82.22;38.03;;;1.00;99.90;;;;;;5115417;27;20201;-83
2023/01/25 05:03:05;;;;;;;84.07;37.45;;;1.00;99.90;;;;;;5102754;27;20264;-82
2023/01/25 05:05:31;;;;;;;82.60;38.40;;;1.00;99.90;;;;;;5107201;27;20232;-83
2023/01/25 05:07:59;;;;;;;80.45;35.70;;;1.00;99.90;;;;;;5111762;27;20196;-83
2023/01/25 05:10:27;;;;;;;78.00;35.80;;;1.00;99.90;;;;;;5093990;27;20192;-83
2023/01/25 05:13:13;;;;;;;89.20;41.90;;;1.00;99.90;;;;;;5113249;27;20571;-83
2023/01/25 05:15:39;;;;;;;84.90;40.35;;;1.00;99.90;;;;;;5108285;27;20212;-83
2023/01/25 05:18:04;;;;;;;86.97;41.72;;;1.00;99.90;;;;;;5111511;27;20181;-86
2023/01/25 05:20:32;;;;;;;84.97;40.17;;;0.90;99.90;;;;;;5112430;27;20188;-83
2023/01/25 05:22:58;;;;;;;86.38;40.35;;;1.00;99.90;;;;;;5094721;27;20196;-83
2023/01/25 05:28:10;;;;;;;87.47;38.92;;;1.00;99.90;;;;;;5112990;27;20636;-82
2023/01/25 05:31:03;;;;;;;90.22;40.30;;;1.00;99.90;;;;;;5095086;27;20667;-82
2023/01/25 05:33:31;;;;;;;85.65;41.33;;;0.90;99.90;;;;;;5110517;27;20193;-83
2023/01/25 05:35:57;;;;;;;92.43;41.40;;;1.00;99.90;;;;;;5096187;27;20266;-82
2023/01/25 05:38:25;;;;;;;89.10;41.22;;;0.90;99.90;;;;;;5078847;27;20239;-84
2023/01/25 05:40:52;;;;;;;90.22;43.55;;;1.00;99.90;;;;;;5111907;27;20230;-81
2023/01/25 05:43:18;;;;;;;87.50;41.45;;;1.00;99.90;;;;;;5082207;27;20188;-81
2023/01/25 05:45:51;;;;;;;90.75;41.22;;;1.00;99.90;;;;;;5093961;27;20239;-85
2023/01/25 05:48:17;;;;;;;88.05;40.22;;;1.00;99.90;;;;;;5074486;27;20212;-81
2023/01/25 05:50:43;;;;;;;89.30;40.60;;;1.00;99.90;;;;;;5109054;27;20223;-82
2023/01/25 05:53:14;;;;;;;85.78;39.90;;;1.00;99.90;;;;;;5076428;27;20181;-82
2023/01/25 05:55:40;;;;;;;83.28;39.95;;;1.00;99.90;;;;;;5113466;27;20240;-83
2023/01/25 05:58:09;;;;;;;81.18;36.63;;;1.00;99.90;;;;;;5103819;27;20177;-81
2023/01/25 06:00:35;;;;;;;84.40;39.00;;;1.00;99.90;;;;;;5083529;27;20560;-82
2023/01/25 06:03:03;;;;;;;91.72;40.47;;;1.00;99.90;;;;;;5082744;27;20200;-81
2023/01/25 06:05:31;;;;;;;89.25;41.33;;;0.90;99.90;;;;;;5112437;27;20230;-81
2023/01/25 06:07:58;;;;;;;84.30;38.10;;;1.00;99.90;;;;;;5112901;27;20197;-83
2023/01/25 06:10:28;;;;;;;82.65;39.67;;;1.00;99.90;;;;;;5099035;27;20735;-81
2023/01/25 06:12:58;;;;;;;84.07;39.80;;;1.00;99.90;;;;;;5117447;27;20276;-82
2023/01/25 06:15:25;;;;;;;86.90;40.47;;;1.00;99.90;;;;;;5100144;27;20235;-84
2023/01/25 06:17:55;;;;;;;88.63;40.20;;;0.90;99.90;;;;;;5106716;27;20196;-82
2023/01/25 06:20:40;;;;;;;80.85;36.88;;;0.90;99.90;;;;;;5122648;27;20205;-84
2023/01/25 06:23:06;;;;;;;79.25;38.30;;;1.00;99.90;;;;;;5114864;27;20197;-83
2023/01/25 06:25:32;;;;;;;83.82;37.95;;;0.90;99.90;;;;;;5069956;27;20637;-83
2023/01/25 06:27:57;;;;;;;84.57;39.53;;;0.90;99.90;;;;;;5107439;27;20188;-82
2023/01/25 06:30:23;;;;;;;89.00;41.03;;;0.90;99.90;;;;;;5078910;27;20212;-83
2023/01/25 06:32:49;;;;;;;88.72;42.53;;;0.90;99.90;;;;;;5093855;27;20230;-82
2023/01/25 06:35:15;;;;;;;90.50;42.45;;;0.90;99.90;;;;;;5108505;27;20278;-82
2023/01/25 06:37:41;;;;;;;90.82;43.72;;;0.90;99.90;;;;;;5095856;27;20645;-81
2023/01/25 06:40:08;;;;;;;90.75;43.10;;;0.90;99.90;;;;;;5107816;27;20193;-84
2023/01/25 06:42:33;;;;;;;94.32;43.30;;;0.90;99.90;;;;;;5108682;27;20574;-84
2023/01/25 06:44:59;;;;;;;91.10;42.17;;;0.90;99.90;;;;;;5105803;27;20200;-81
2023/01/25 06:47:25;;;;;;;89.95;41.05;;;0.90;99.90;;;;;;5093703;27;20195;-83
2023/01/25 06:49:51;;;;;;;86.18;41.00;;;0.90;99.90;;;;;;5102163;27;20267;-83
2023/01/25 06:52:17;;;;;;;92.53;43.15;;;0.90;99.90;;;;;;5096482;27;20181;-81
2023/01/25 06:54:43;;;;;;;91.38;42.17;;;0.80;99.90;;;;;;5111606;27;20204;-85
2023/01/25 06:57:10;;;;;;;94.10;42.83;;;0.90;99.90;;;;;;5111583;27;20640;-84
2023/01/25 06:59:36;;;;;;;86.43;40.92;;;0.90;99.90;;;;;;5114175;27;20192;-83
2023/01/25 07:02:02;;;;;;;73.38;31.27;;;0.90;99.90;;;;;;5099299;27;20189;-83
2023/01/25 07:04:28;;;;;;;92.28;40.47;;;0.90;99.90;;;;;;5117102;27;20253;-81
2023/01/25 07:06:53;;;;;;;85.65;39.90;;;0.90;99.90;;;;;;5111908;27;20189;-83
2023/01/25 07:09:23;;;;;;;86.47;39.78;;;0.80;99.90;;;;;;5116649;27;20200;-80
2023/01/25 07:11:52;;;;;;;88.60;40.95;;;0.80;99.90;;;;;;5097903;28;20233;-89
2023/01/25 07:14:18;;;;;;;91.95;44.70;;;0.90;99.90;;;;;;5131455;28;20267;-81
2023/01/25 07:16:43;;;;;;;89.78;40.22;;;0.80;99.90;;;;;;5125168;28;20232;-81
2023/01/25 07:19:13;;;;;;;88.05;42.28;;;0.80;99.90;;;;;;5127369;28;20513;-80
2023/01/25 07:21:39;;;;;;;89.85;41.88;;;0.90;99.90;;;;;;5118423;28;20204;-81
2023/01/25 07:24:05;;;;;;;86.03;41.65;;;0.90;99.90;;;;;;5120143;28;20223;-82
2023/01/25 07:26:31;;;;;;;88.97;39.35;;;0.90;99.90;;;;;;5110464;28;20193;-81
2023/01/25 07:28:58;;;;;;;86.18;41.67;;;0.80;99.90;;;;;;5110775;28;20193;-89
2023/01/25 07:31:24;;;;;;;88.13;39.75;;;0.90;99.90;;;;;;5096489;28;20696;-85
2023/01/25 07:33:56;;;;;;;84.72;39.97;;;0.90;99.90;;;;;;5107930;28;20197;-80
2023/01/25 07:36:22;;;;;;;80.65;37.67;;;0.90;99.90;;;;;;5127915;27;20212;-83
2023/01/25 07:38:52;;;;;;;81.18;38.03;;;0.80;99.90;;;;;;5113957;28;20185;-85
2023/01/25 07:41:18;;;;;;;79.40;38.75;;;0.90;99.90;;;;;;5110738;28;20423;-81
2023/01/25 07:43:44;;;;;;;86.40;38.63;;;0.80;99.90;;;;;;5110658;28;20331;-83
2023/01/25 07:46:12;;;;;;;76.30;37.35;;;0.90;99.90;;;;;;5093545;28;20188;-80
2023/01/25 07:48:39;;;;;;;77.63;37.15;;;0.90;99.90;;;;;;5111772;28;20187;-83
2023/01/25 07:51:11;;;;;;;76.70;35.90;;;0.90;99.90;;;;;;5112243;27;20181;-80
2023/01/25 07:53:38;;;;;;;74.22;34.88;;;0.80;99.90;;;;;;5115994;27;20183;-82
2023/01/25 07:56:05;;;;;;;73.65;36.90;;;0.80;99.90;;;;;;5116000;27;20270;-85
2023/01/25 07:58:31;;;;;;;67.93;33.97;;;0.80;99.90;;;;;;5094526;27;20203;-82
2023/01/25 08:00:57;;;;;;;72.18;35.47;;;0.80;99.90;;;;;;5109239;27;20189;-82
2023/01/25 08:03:22;;;;;;;79.15;37.03;;;0.80;99.90;;;;;;5116738;27;20268;-79
2023/01/25 08:05:48;;;;;;;71.40;36.20;;;0.80;99.90;;;;;;5115436;27;20228;-83
2023/01/25 08:08:15;;;;;;;69.47;33.47;;;0.80;99.90;;;;;;5115325;27;20292;-83
2023/01/25 08:10:41;;;;;;;67.95;33.75;;;0.80;99.90;;;;;;5113237;27;20181;-80
2023/01/25 08:13:07;;;;;;;67.53;34.20;;;0.80;99.90;;;;;;5111841;27;21117;-81
2023/01/25 08:15:32;;;;;;;66.30;34.28;;;0.70;99.90;;;;;;5115008;27;20211;-81
2023/01/25 08:17:59;;;;;;;58.40;29.83;;;0.80;99.90;;;;;;5115458;27;20192;-84
2023/01/25 08:20:25;;;;;;;65.53;32.22;;;0.70;99.90;;;;;;5115197;27;20204;-82
2023/01/25 08:22:51;;;;;;;62.92;33.28;;;0.70;99.90;;;;;;5113609;27;20260;-81
2023/01/25 08:25:17;;;;;;;64.28;33.10;;;0.70;99.90;;;;;;5119260;27;20185;-82
2023/01/25 08:27:43;;;;;;;62.47;31.60;;;0.70;99.90;;;;;;5114859;27;20189;-81
2023/01/25 08:30:11;;;;;;;63.55;32.83;;;0.70;99.90;;;;;;5111961;27;20184;-85
2023/01/25 08:32:37;;;;;;;64.13;34.58;;;0.70;99.90;;;;;;5101702;27;20583;-81
2023/01/25 08:35:04;;;;;;;59.13;31.60;;;0.70;99.90;;;;;;5116467;27;20604;-84
2023/01/25 08:37:30;;;;;;;64.80;34.92;;;0.70;99.90;;;;;;5061824;27;20185;-81
2023/01/25 08:39:56;;;;;;;66.72;34.35;;;0.70;99.90;;;;;;5096046;27;20203;-82
2023/01/25 08:42:23;;;;;;;65.43;33.53;;;0.70;99.90;;;;;;5113170;27;20644;-82
2023/01/25 08:44:49;;;;;;;59.60;31.33;;;0.70;99.90;;;;;;5104866;27;20187;-82
2023/01/25 08:47:14;;;;;;;64.68;31.73;;;0.70;99.90;;;;;;5113748;27;20189;-82
2023/01/25 08:49:40;;;;;;;62.08;33.58;;;0.60;99.90;;;;;;5098476;27;20189;-85
2023/01/25 08:52:06;;;;;;;60.70;30.13;;;0.60;99.90;;;;;;5085116;27;20185;-83
2023/01/25 08:54:32;;;;;;;57.00;28.90;;;0.60;99.90;;;;;;5122263;27;20912;-82
2023/01/25 08:56:59;;;;;;;60.25;30.70;;;0.60;99.90;;;;;;5098525;27;20341;-80
2023/01/25 08:59:25;;;;;;;64.60;31.42;;;0.60;99.90;;;;;;5101641;27;20193;-81
2023/01/25 09:01:51;;;;;;;63.55;32.75;;;0.70;99.90;;;;;;5115856;27;20199;-81
2023/01/25 09:04:17;;;;;;;68.95;34.65;;;0.70;99.90;;;;;;5117546;27;21561;-83
2023/01/25 09:06:43;;;;;;;64.13;32.40;;;0.70;99.90;;;;;;5102487;27;20204;-83
2023/01/25 09:09:11;;;;;;;72.57;34.20;;;0.70;99.90;;;;;;5112885;27;20329;-83
2023/01/25 09:11:37;;;;;;;67.25;31.50;;;0.60;99.90;;;;;;5111604;27;20644;-85
2023/01/25 09:14:03;;;;;;;70.78;36.05;;;0.70;99.90;;;;;;5115697;27;20237;-80
2023/01/25 09:16:29;;;;;;;62.55;31.27;;;0.70;99.90;;;;;;5111685;27;20232;-79
2023/01/25 09:18:57;;;;;;;62.80;30.92;;;0.70;99.90;;;;;;5115596;27;20272;-82
2023/01/25 09:21:23;;;;;;;70.20;33.75;;;0.60;99.90;;;;;;5119547;27;20842;-83
2023/01/25 09:23:50;;;;;;;66.93;32.65;;;0.60;99.90;;;;;;5112684;27;20507;-80
2023/01/25 09:26:17;;;;;;;68.07;33.28;;;0.70;99.90;;;;;;5112427;27;20224;-82
2023/01/25 09:28:47;;;;;;;66.00;31.08;;;0.60;99.90;;;;;;5115292;27;20252;-82
2023/01/25 09:31:13;;;;;;;68.75;33.85;;;0.60;99.90;;;;;;5115089;27;20263;-81
2023/01/25 09:33:59;;;;;;;70.20;32.50;;;0.60;99.90;;;;;;5117994;27;20943;-79
2023/01/25 09:36:25;;;;;;;69.15;31.73;;;0.60;99.90;;;;;;5104876;27;20212;-82
2023/01/25 09:38:50;;;;;;;72.25;32.85;;;0.60;99.90;;;;;;5102165;27;20204;-80
2023/01/25 09:41:41;;;;;;;67.28;31.95;;;0.60;99.90;;;;;;5114046;27;20561;-80
2023/01/25 09:44:32;;;;;;;71.47;36.10;;;0.60;99.90;;;;;;5115855;27;20168;-81
2023/01/25 09:47:03;;;;;;;80.03;36.35;;;0.60;99.90;;;;;;5112221;27;20726;-81
2023/01/25 09:49:54;;;;;;;78.38;37.17;;;0.60;99.90;;;;;;5113472;27;20223;-83
2023/01/25 09:52:52;;;;;;;78.28;35.20;;;0.70;99.90;;;;;;5116273;27;20288;-81
2023/01/25 09:55:21;;;;;;;70.25;33.58;;;0.70;99.90;;;;;;5112148;27;20180;-81
2023/01/25 09:57:49;;;;;;;70.68;33.17;;;0.70;99.90;;;;;;5112245;27;20192;-84
2023/01/25 10:00:25;;;;;;;70.90;33.47;;;0.60;99.90;;;;;;5115485;27;20189;-81
2023/01/25 10:03:26;;;;;;;74.13;33.97;;;0.70;99.90;;;;;;5114499;27;20180;-82
2023/01/25 10:05:58;;;;;;;69.82;29.60;;;0.70;99.90;;;;;;5072345;27;20225;-81
2023/01/25 10:08:30;;;;;;;73.30;34.58;;;0.70;99.90;;;;;;5117198;27;20176;-84
2023/01/25 10:11:20;;;;;;;67.95;33.00;;;0.70;99.90;;;;;;5113764;27;20276;-84
2023/01/25 10:13:45;;;;;;;70.32;30.63;;;0.70;99.90;;;;;;5100948;27;20400;-80
2023/01/25 10:16:57;;;;;;;67.05;29.95;;;0.70;99.90;;;;;;5113416;27;20273;-83
2023/01/25 10:19:46;;;;;;;71.10;30.98;;;0.70;99.90;;;;;;5111229;27;20220;-81
2023/01/25 10:22:24;;;;;;;68.20;29.73;;;0.70;99.90;;;;;;5107812;27;20211;-81
2023/01/25 10:24:56;;;;;;;73.60;32.40;;;0.70;99.90;;;;;;5114480;27;20172;-81
2023/01/25 10:27:31;;;;;;;72.10;33.33;;;0.70;99.90;;;;;;5110197;27;20216;-81
2023/01/25 10:30:19;;;;;;;74.72;33.47;;;0.70;99.90;;;;;;5112726;27;20173;-78
2023/01/25 10:32:46;;;;;;;71.55;31.23;;;0.80;99.90;;;;;;5111732;27;20185;-85
2023/01/25 10:35:17;;;;;;;74.50;32.45;;;0.80;99.90;;;;;;5112095;27;20216;-81
2023/01/25 10:37:44;;;;;;;71.68;33.17;;;0.80;99.90;;;;;;5111154;27;20180;-85
2023/01/25 10:40:20;;;;;;;76.72;35.92;;;0.80;99.90;;;;;;5111580;27;20196;-82
2023/01/25 10:43:06;;;;;;;73.18;32.67;;;0.90;99.90;;;;;;5111658;27;20842;-81
2023/01/25 10:45:32;;;;;;;72.45;34.80;;;0.90;99.90;;;;;;5101859;27;20189;-82
2023/01/25 10:48:05;;;;;;;70.03;31.55;;;0.90;99.90;;;;;;5097318;27;20211;-83
2023/01/25 10:50:45;;;;;;;71.53;32.90;;;0.90;99.90;;;;;;5111752;27;20172;-84
2023/01/25 10:53:32;;;;;;;72.15;32.03;;;0.90;99.90;;;;;;5112921;27;20184;-80
2023/01/25 10:56:10;;;;;;;76.70;35.13;;;0.90;99.90;;;;;;5114007;27;20280;-80
2023/01/25 10:58:35;;;;;;;69.22;32.42;;;0.90;99.90;;;;;;5095837;28;20191;-81
2023/01/25 11:01:05;;;;;;;72.68;32.15;;;0.90;99.90;;;;;;5110667;27;20641;-80
2023/01/25 11:03:40;;;;;;;78.05;32.75;;;1.00;99.90;;;;;;5114472;27;20235;-79
2023/01/25 11:06:07;;;;;;;81.68;36.33;;;1.00;99.90;;;;;;5113381;27;20231;-79
2023/01/25 11:08:38;;;;;;;86.13;34.70;;;1.00;99.90;;;;;;5113802;27;20169;-80
2023/01/25 11:11:24;;;;;;;76.43;32.20;;;1.00;99.90;;;;;;5109484;27;20545;-80
2023/01/25 11:13:54;;;;;;;78.50;33.30;;;1.00;99.90;;;;;;5113362;27;20272;-80
2023/01/25 11:16:26;;;;;;;74.78;34.30;;;1.00;99.90;;;;;;5114520;27;20338;-82
2023/01/25 11:18:54;;;;;;;76.75;35.80;;;1.00;99.90;;;;;;5114075;28;20180;-82
2023/01/25 11:21:24;;;;;;;74.78;34.50;;;1.10;99.90;;;;;;5094668;28;20273;-80
2023/01/25 11:24:02;;;;;;;76.05;31.58;;;1.10;99.90;;;;;;5111971;28;20506;-82
2023/01/25 11:26:28;;;;;;;69.78;30.73;;;1.10;99.90;;;;;;5114372;27;20195;-80
2023/01/25 11:29:20;;;;;;;74.97;31.48;;;1.10;99.90;;;;;;5115349;27;20724;-82
2023/01/25 11:31:50;;;;;;;76.53;30.92;;;1.10;99.90;;;;;;5116321;27;20185;-82
2023/01/25 11:34:20;;;;;;;70.78;33.05;;;1.20;99.90;;;;;;5114718;27;20632;-80
2023/01/25 11:36:51;;;;;;;65.53;25.48;;;1.20;99.90;;;;;;5114035;27;20208;-84
2023/01/25 11:39:32;;;;;;;73.00;31.67;;;1.20;99.90;;;;;;5112634;27;20271;-81
2023/01/25 11:42:16;;;;;;;74.78;33.30;;;1.20;99.90;;;;;;5115127;27;20635;-81
2023/01/25 11:45:03;;;;;;;81.30;34.95;;;1.20;99.90;;;;;;5118648;27;20177;-80
2023/01/25 11:47:32;;;;;;;74.03;32.55;;;1.20;99.90;;;;;;5114779;27;20260;-80
2023/01/25 11:50:38;;;;;;;71.85;30.95;;;1.20;99.90;;;;;;5115741;27;20555;-81
2023/01/25 11:53:22;;;;;;;80.90;31.75;;;1.20;99.90;;;;;;5109635;27;20192;-78
2023/01/25 11:56:18;;;;;;;76.75;31.17;;;1.20;99.90;;;;;;5115749;27;20201;-80
2023/01/25 11:59:21;;;;;;;76.68;29.70;;;1.20;99.90;;;;;;5114649;27;20180;-81
2023/01/25 12:01:53;;;;;;;73.03;30.63;;;1.20;99.90;;;;;;5101135;27;20681;-83
2023/01/25 12:04:33;;;;;;;78.50;33.72;;;1.30;99.90;;;;;;5118309;27;20236;-84
2023/01/25 12:07:05;;;;;;;78.45;31.25;;;1.30;99.90;;;;;;5113053;27;20226;-80
2023/01/25 12:09:42;;;;;;;75.28;31.05;;;1.30;99.90;;;;;;5117062;27;20188;-81
2023/01/25 12:12:14;;;;;;;80.22;31.70;;;1.30;99.90;;;;;;5118711;27;20189;-82
2023/01/25 12:15:02;;;;;;;73.75;32.13;;;1.30;99.90;;;;;;5117006;27;20176;-83
2023/01/25 12:17:42;;;;;;;85.32;33.40;;;1.40;99.90;;;;;;5097461;27;20307;-80
2023/01/25 12:20:38;;;;;;;80.15;31.70;;;1.40;99.90;;;;;;5118025;27;20268;-81
2023/01/25 12:23:19;;;;;;;79.50;31.75;;;1.40;99.90;;;;;;5112538;27;22285;-79
2023/01/25 12:26:05;;;;;;;73.28;27.10;;;1.40;99.90;;;;;;5124225;27;20194;-80
2023/01/25 12:28:43;;;;;;;78.72;31.30;;;1.40;99.90;;;;;;5116364;27;20308;-81
2023/01/25 12:31:32;;;;;;;82.75;30.23;;;1.40;99.90;;;;;;5117416;27;20177;-86
2023/01/25 12:34:15;;;;;;;80.95;30.88;;;1.50;99.90;;;;;;5106969;27;20188;-81
2023/01/25 12:36:46;;;;;;;81.30;30.95;;;1.40;99.90;;;;;;5115336;27;21331;-79
2023/01/25 12:39:24;;;;;;;81.80;31.23;;;1.50;99.90;;;;;;5117597;27;20212;-79
2023/01/25 12:41:57;;;;;;;87.93;33.63;;;1.50;99.90;;;;;;5114468;27;20187;-81
2023/01/25 12:44:34;;;;;;;76.30;29.55;;;1.40;99.90;;;;;;5111651;27;21839;-82
2023/01/25 12:47:11;;;;;;;81.78;30.70;;;1.50;99.90;;;;;;5112384;27;20317;-80
2023/01/25 12:50:01;;;;;;;79.57;30.85;;;1.50;99.90;;;;;;5114597;27;20237;-80
2023/01/25 12:52:36;;;;;;;80.68;31.08;;;1.50;99.90;;;;;;5115150;27;20260;-83
2023/01/25 12:55:12;;;;;;;84.03;30.00;;;1.40;99.90;;;;;;5110907;27;20179;-82
2023/01/25 12:57:57;;;;;;;78.70;30.15;;;1.50;99.90;;;;;;5127084;27;20242;-84